createdAt,value
2018-06-02T00:01:35.945Z,27.00
2018-06-02T00:04:04.869Z,20.73
2018-06-02T00:06:33.689Z,18.67
2018-06-02T00:09:03.532Z,14.53
2018-06-02T00:11:32.383Z,13.53
2018-06-02T00:14:01.485Z,15.13
2018-06-02T00:16:30.287Z,12.27
2018-06-02T00:18:59.844Z,13.57
2018-06-02T00:21:28.616Z,14.93
2018-06-02T00:23:57.426Z,17.97
2018-06-02T00:26:26.512Z,13.50
2018-06-02T00:28:55.414Z,21.53
2018-06-02T00:31:25.230Z,17.33
2018-06-02T00:33:54.188Z,17.23
2018-06-02T00:36:23.259Z,19.90
2018-06-02T00:38:52.083Z,17.73
2018-06-02T00:41:20.914Z,20.77
2018-06-02T00:44:13.153Z,12.83
2018-06-02T00:46:42.802Z,11.33
2018-06-02T00:49:11.612Z,15.07
2018-06-02T00:51:40.599Z,11.63
2018-06-02T00:54:09.368Z,9.53
2018-06-02T00:56:38.261Z,11.47
2018-06-02T00:59:07.017Z,11.47
2018-06-02T01:01:36.722Z,13.50
2018-06-02T01:04:05.539Z,10.80
2018-06-02T01:06:34.349Z,13.30
2018-06-02T01:09:03.360Z,12.97
2018-06-02T01:11:32.334Z,9.37
2018-06-02T01:14:01.220Z,11.10
2018-06-02T01:16:30.090Z,12.90
2018-06-02T01:18:59.782Z,11.90
2018-06-02T01:21:28.619Z,11.87
2018-06-02T01:23:57.474Z,14.17
2018-06-02T01:26:26.343Z,13.93
2018-06-02T01:28:55.195Z,10.17
2018-06-02T01:31:24.014Z,16.70
2018-06-02T01:33:52.909Z,11.57
2018-06-02T01:36:21.705Z,16.23
2018-06-02T01:38:51.311Z,17.27
2018-06-02T01:41:20.209Z,11.80
2018-06-02T01:43:49.762Z,13.77
2018-06-02T01:46:18.671Z,11.03
2018-06-02T01:48:47.506Z,19.53
2018-06-02T01:51:16.406Z,12.90
2018-06-02T01:53:45.557Z,10.07
2018-06-02T01:56:14.561Z,11.93
2018-06-02T01:58:43.432Z,14.43
2018-06-02T02:01:12.303Z,10.97
2018-06-02T02:03:41.178Z,10.43
2018-06-02T02:06:10.003Z,11.20
2018-06-02T02:08:39.634Z,10.67
2018-06-02T02:11:08.474Z,13.93
2018-06-02T02:13:37.377Z,15.27
2018-06-02T02:16:06.164Z,15.07
2018-06-02T02:18:34.990Z,22.93
2018-06-02T02:21:04.648Z,30.10
2018-06-02T02:23:33.627Z,19.73
2018-06-02T02:26:02.666Z,15.70
2018-06-02T02:28:32.312Z,20.23
2018-06-02T02:31:01.188Z,22.77
2018-06-02T02:33:30.404Z,23.10
2018-06-02T02:35:59.190Z,26.03
2018-06-02T02:38:28.392Z,15.80
2018-06-02T02:40:57.247Z,17.57
2018-06-02T02:43:26.061Z,18.80
2018-06-02T02:45:55.663Z,22.90
2018-06-02T02:48:24.722Z,15.37
2018-06-02T02:50:53.514Z,17.70
2018-06-02T02:53:22.795Z,17.67
2018-06-02T02:55:51.739Z,15.10
2018-06-02T02:58:21.359Z,14.67
2018-06-02T03:00:50.188Z,46.80
2018-06-02T03:03:19.100Z,39.43
2018-06-02T03:05:47.952Z,29.97
2018-06-02T03:08:17.008Z,23.03
2018-06-02T03:10:46.652Z,21.97
2018-06-02T03:13:15.529Z,23.30
2018-06-02T03:15:45.152Z,25.73
2018-06-02T03:18:14.055Z,18.97
2018-06-02T03:20:42.890Z,21.37
2018-06-02T03:23:11.662Z,20.33
2018-06-02T03:25:40.562Z,30.07
2018-06-02T03:28:10.357Z,26.77
2018-06-02T03:30:39.207Z,25.83
2018-06-02T03:33:08.936Z,28.83
2018-06-02T03:35:37.747Z,23.33
2018-06-02T03:38:06.578Z,37.17
2018-06-02T03:40:35.724Z,22.83
2018-06-02T03:43:05.439Z,24.13
2018-06-02T03:45:34.363Z,17.07
2018-06-02T03:48:04.326Z,24.03
2018-06-02T03:50:33.216Z,21.30
2018-06-02T03:53:02.200Z,28.37
2018-06-02T03:55:31.187Z,19.93
2018-06-02T03:58:00.047Z,22.40
2018-06-02T04:00:28.877Z,15.97
2018-06-02T04:02:57.634Z,16.77
2018-06-02T04:05:26.459Z,18.53
2018-06-02T04:07:55.303Z,19.03
2018-06-02T04:10:24.903Z,16.93
2018-06-02T04:12:54.529Z,17.47
2018-06-02T04:15:23.741Z,15.53
2018-06-02T04:17:52.662Z,27.57
2018-06-02T04:20:21.592Z,25.00
2018-06-02T04:22:50.589Z,45.83
2018-06-02T04:25:20.174Z,35.97
2018-06-02T04:27:48.981Z,23.87
2018-06-02T04:30:17.831Z,27.23
2018-06-02T04:32:47.513Z,24.50
2018-06-02T04:35:16.347Z,28.77
2018-06-02T04:37:45.215Z,43.87
2018-06-02T04:40:13.997Z,42.23
2018-06-02T04:42:42.874Z,45.10
2018-06-02T04:45:12.453Z,34.27
2018-06-02T04:47:41.424Z,49.83
2018-06-02T04:50:10.387Z,38.73
2018-06-02T04:52:39.242Z,32.67
2018-06-02T04:55:08.855Z,21.50
2018-06-02T04:57:37.932Z,15.23
2018-06-02T05:00:07.793Z,19.53
2018-06-02T05:02:36.781Z,24.67
2018-06-02T05:05:05.741Z,23.80
2018-06-02T05:07:35.295Z,19.43
2018-06-02T05:10:04.319Z,24.50
2018-06-02T05:12:33.500Z,24.70
2018-06-02T05:15:02.363Z,19.80
2018-06-02T05:17:31.218Z,22.33
2018-06-02T05:20:00.034Z,29.80
2018-06-02T05:22:28.826Z,26.50
2018-06-02T05:24:57.722Z,42.07
2018-06-02T05:27:26.828Z,35.13
2018-06-02T05:29:55.635Z,25.40
2018-06-02T05:32:24.459Z,27.97
2018-06-02T05:34:54.002Z,24.83
2018-06-02T05:37:22.941Z,24.87
2018-06-02T05:39:51.890Z,20.73
2018-06-02T05:42:20.808Z,24.37
2018-06-02T05:44:49.661Z,35.20
2018-06-02T05:47:18.635Z,31.13
2018-06-02T05:49:47.511Z,21.80
2018-06-02T05:52:16.370Z,20.70
2018-06-02T05:54:45.654Z,24.67
2018-06-02T05:57:14.475Z,27.20
2018-06-02T05:59:45.167Z,46.67
2018-06-02T06:02:13.484Z,30.87
2018-06-02T06:04:42.456Z,46.27
2018-06-02T06:07:11.267Z,34.90
2018-06-02T06:09:40.113Z,20.10
2018-06-02T06:12:09.065Z,32.37
2018-06-02T06:14:40.330Z,35.97
2018-06-02T06:17:09.398Z,23.57
2018-06-02T06:19:39.284Z,21.83
2018-06-02T06:22:08.241Z,38.33
2018-06-02T06:24:36.993Z,25.57
2018-06-02T06:27:06.061Z,25.70
2018-06-02T06:29:35.841Z,15.80
2018-06-02T06:34:39.844Z,26.87
2018-06-02T06:37:09.525Z,23.03
2018-06-02T06:39:50.867Z,14.87
2018-06-02T06:42:25.569Z,25.17
2018-06-02T06:44:55.145Z,37.80
2018-06-02T06:47:24.107Z,17.30
2018-06-02T06:49:52.933Z,19.60
2018-06-02T06:52:22.024Z,19.07
2018-06-02T06:54:51.157Z,20.03
2018-06-02T06:57:21.042Z,19.30
2018-06-02T06:59:50.856Z,19.03
2018-06-02T07:02:20.228Z,16.70
2018-06-02T07:04:49.091Z,22.30
2018-06-02T07:07:18.015Z,20.50
2018-06-02T07:09:46.787Z,17.60
2018-06-02T07:12:15.727Z,22.67
2018-06-02T07:14:45.466Z,22.87
2018-06-02T07:17:14.281Z,20.90
2018-06-02T08:48:41.404Z,17.87
2018-06-02T08:51:10.367Z,19.87
2018-06-02T08:53:40.354Z,17.63
2018-06-02T08:56:10.259Z,28.83
2018-06-02T08:58:39.209Z,16.67
2018-06-02T09:01:08.482Z,17.97
2018-06-02T09:03:37.557Z,18.30
2018-06-02T09:06:07.600Z,22.57
2018-06-02T09:08:37.405Z,18.10
2018-06-02T09:11:07.048Z,20.90
2018-06-02T09:13:36.851Z,16.10
2018-06-02T09:16:06.713Z,20.13
2018-06-02T09:18:35.654Z,29.97
2018-06-02T09:21:05.289Z,21.27
2018-06-02T09:23:34.103Z,21.37
2018-06-02T09:26:04.728Z,30.47
2018-06-02T09:28:33.812Z,17.70
2018-06-02T09:31:03.745Z,15.07
2018-06-02T09:33:32.668Z,15.00
2018-06-02T09:36:01.532Z,11.97
2018-06-02T09:38:30.388Z,12.17
2018-06-02T09:40:59.240Z,13.53
2018-06-02T09:43:28.878Z,16.80
2018-06-02T09:45:57.730Z,13.10
2018-06-02T09:48:26.585Z,11.53
2018-06-02T09:50:55.674Z,9.77
2018-06-02T09:53:30.014Z,32.13
2018-06-02T09:55:59.877Z,12.47
2018-06-02T09:58:29.564Z,11.90
2018-06-02T10:00:59.424Z,12.43
2018-06-02T10:03:29.346Z,15.53
2018-06-02T10:05:58.658Z,10.47
2018-06-02T10:08:28.345Z,13.10
2018-06-02T10:10:57.255Z,18.20
2018-06-02T10:13:26.082Z,12.53
2018-06-02T10:15:54.987Z,12.70
2018-06-02T10:18:24.652Z,11.53
2018-06-02T10:20:53.456Z,9.40
2018-06-02T10:23:22.483Z,15.97
2018-06-02T10:25:52.572Z,12.03
2018-06-02T10:28:21.344Z,13.70
2018-06-02T10:30:50.222Z,9.73
2018-06-02T10:33:19.075Z,25.17
2018-06-02T10:35:49.897Z,13.73
2018-06-02T10:38:18.752Z,9.30
2018-06-02T10:40:47.605Z,10.20
2018-06-02T10:43:17.288Z,15.20
2018-06-02T10:45:46.832Z,9.47
2018-06-02T10:48:15.700Z,13.40
2018-06-02T10:50:44.546Z,13.50
2018-06-02T10:53:13.369Z,10.87
2018-06-02T10:55:42.370Z,11.27
2018-06-02T10:58:11.322Z,13.07
2018-06-02T11:00:40.693Z,11.23
2018-06-02T11:03:10.201Z,8.43
2018-06-02T11:05:39.029Z,10.77
2018-06-02T11:08:07.832Z,13.47
2018-06-02T11:10:36.774Z,12.83
2018-06-02T11:13:05.964Z,7.67
2018-06-02T11:15:34.871Z,17.90
2018-06-02T11:18:04.643Z,20.17
2018-06-02T11:20:33.495Z,7.27
2018-06-02T11:23:02.302Z,12.00
2018-06-02T11:25:31.499Z,11.60
2018-06-02T11:28:00.418Z,13.83
2018-06-02T11:30:29.699Z,12.57
2018-06-02T11:32:59.432Z,8.50
2018-06-02T11:35:28.346Z,14.43
2018-06-02T11:37:57.096Z,11.83
2018-06-02T11:40:25.868Z,11.07
2018-06-02T11:42:54.705Z,19.87
2018-06-02T11:45:23.679Z,8.03
2018-06-02T11:47:52.627Z,10.30
2018-06-02T11:50:21.475Z,9.73
2018-06-02T11:52:50.275Z,10.87
2018-06-02T11:55:29.076Z,9.73
2018-06-02T11:58:01.013Z,14.87
2018-06-02T12:00:30.099Z,11.87
2018-06-02T12:02:58.943Z,10.83
2018-06-02T12:05:28.605Z,9.00
2018-06-02T12:07:57.551Z,12.83
2018-06-02T12:10:27.178Z,10.80
2018-06-02T12:12:56.050Z,23.40
2018-06-02T12:15:25.256Z,18.83
2018-06-02T12:17:54.928Z,16.93
2018-06-02T12:20:24.510Z,11.00
2018-06-02T12:22:53.405Z,12.03
2018-06-02T12:25:23.017Z,13.83
2018-06-02T12:27:51.855Z,14.37
2018-06-02T12:30:20.923Z,15.33
2018-06-02T12:32:49.809Z,23.80
2018-06-02T12:35:19.538Z,9.63
2018-06-02T12:37:48.593Z,20.77
2018-06-02T12:40:17.791Z,7.93
2018-06-02T12:42:46.738Z,24.77
2018-06-02T12:45:16.444Z,15.87
2018-06-02T12:47:45.262Z,16.90
2018-06-02T12:50:14.126Z,21.17
2018-06-02T12:52:42.914Z,16.73
2018-06-02T12:55:11.838Z,21.33
2018-06-02T12:57:41.359Z,20.13
2018-06-02T13:00:10.213Z,14.03
2018-06-02T13:02:39.831Z,20.13
2018-06-02T13:05:08.594Z,12.60
2018-06-02T13:07:37.634Z,12.23
2018-06-02T13:10:07.128Z,11.63
2018-06-02T13:12:36.041Z,16.10
2018-06-02T13:15:04.895Z,14.70
2018-06-02T13:17:33.698Z,18.13
2018-06-02T13:20:02.499Z,10.37
2018-06-02T13:22:32.247Z,13.47
2018-06-02T13:25:02.211Z,11.37
2018-06-02T13:27:32.629Z,13.43
2018-06-02T13:30:02.019Z,17.70
2018-06-02T13:32:32.583Z,25.60
2018-06-02T13:35:01.831Z,17.27
2018-06-02T13:37:31.005Z,16.80
2018-06-02T13:39:59.845Z,11.33
2018-06-02T13:42:28.541Z,16.77
2018-06-02T13:44:57.289Z,13.00
2018-06-02T13:47:26.161Z,15.03
2018-06-02T13:49:55.064Z,13.80
2018-06-02T13:52:23.818Z,18.77
2018-06-02T13:54:52.761Z,19.40
2018-06-02T13:57:21.821Z,18.30
2018-06-02T13:59:50.749Z,14.63
2018-06-02T14:02:19.520Z,11.40
2018-06-02T14:04:48.293Z,16.60
2018-06-02T14:07:17.321Z,13.87
2018-06-02T14:09:46.082Z,14.80
2018-06-02T14:12:14.806Z,15.30
2018-06-02T14:14:43.887Z,10.37
2018-06-02T14:17:13.304Z,11.27
2018-06-02T14:19:45.950Z,11.90
2018-06-02T14:22:16.952Z,9.27
2018-06-02T14:24:53.365Z,15.80
2018-06-02T14:27:23.232Z,14.27
2018-06-02T14:29:52.816Z,13.57
2018-06-02T14:32:21.984Z,18.50
2018-06-02T14:34:50.780Z,14.03
2018-06-02T14:37:19.774Z,11.90
2018-06-02T14:39:48.629Z,10.57
2018-06-02T14:42:17.396Z,9.30
2018-06-02T14:44:47.149Z,12.20
2018-06-02T14:47:15.981Z,14.43
2018-06-02T14:49:45.802Z,16.77
2018-06-02T14:52:15.620Z,12.77
2018-06-02T14:54:44.513Z,10.67
2018-06-02T14:57:13.314Z,15.37
2018-06-02T14:59:42.868Z,15.60
2018-06-02T15:02:12.484Z,13.57
2018-06-02T15:04:41.280Z,11.67
2018-06-02T15:07:10.259Z,10.17
2018-06-02T15:09:39.176Z,17.13
2018-06-02T15:12:07.985Z,15.23
2018-06-02T15:14:37.522Z,15.77
2018-06-02T15:17:06.422Z,17.50
2018-06-02T15:19:35.486Z,16.97
2018-06-02T15:22:04.284Z,14.37
2018-06-02T15:24:33.282Z,18.67
2018-06-02T15:27:02.179Z,10.83
2018-06-02T15:29:30.991Z,17.17
2018-06-02T15:31:59.870Z,16.90
2018-06-02T15:34:28.733Z,20.93
2018-06-02T15:36:57.721Z,22.73
2018-06-02T15:39:27.313Z,13.53
2018-06-02T15:41:56.176Z,21.37
2018-06-02T15:44:25.291Z,34.30
2018-06-02T15:46:54.866Z,23.57
2018-06-02T15:49:23.692Z,17.57
2018-06-02T15:51:53.363Z,17.70
2018-06-02T15:54:22.560Z,12.97
2018-06-02T15:56:51.503Z,12.73
2018-06-02T15:59:20.193Z,22.73
2018-06-02T16:01:49.774Z,12.77
2018-06-02T16:04:19.043Z,16.93
2018-06-02T16:06:48.669Z,14.43
2018-06-02T16:09:18.309Z,15.77
2018-06-02T16:11:49.058Z,19.80
2018-06-02T16:14:18.620Z,17.83
2018-06-02T16:16:47.453Z,11.73
2018-06-02T16:19:16.519Z,20.23
2018-06-02T16:21:45.395Z,20.33
2018-06-02T16:24:14.414Z,18.70
2018-06-02T16:26:43.173Z,26.17
2018-06-02T16:29:12.059Z,13.40
2018-06-02T16:31:41.652Z,12.07
2018-06-02T16:34:11.295Z,20.20
2018-06-02T16:36:40.118Z,11.40
2018-06-02T16:39:10.625Z,16.33
2018-06-02T16:41:40.154Z,10.43
2018-06-02T16:44:09.159Z,13.10
2018-06-02T16:46:37.844Z,15.57
2018-06-02T16:49:06.689Z,63.93
2018-06-02T16:51:35.560Z,50.30
2018-06-02T16:54:04.758Z,38.73
2018-06-02T16:56:34.282Z,48.90
2018-06-02T16:59:03.098Z,18.97
2018-06-02T17:01:31.927Z,24.60
2018-06-02T17:04:00.836Z,48.70
2018-06-02T17:06:30.611Z,169.80
2018-06-02T17:08:59.536Z,159.77
2018-06-02T17:11:28.617Z,51.50
2018-06-02T17:13:58.149Z,48.03
2018-06-02T17:16:27.827Z,50.60
2018-06-02T17:18:56.570Z,37.80
2018-06-02T17:21:25.716Z,45.97
2018-06-02T17:23:54.490Z,97.47
2018-06-02T17:26:23.512Z,80.03
2018-06-02T17:28:53.139Z,67.83
2018-06-02T17:31:21.840Z,53.43
2018-06-02T17:33:50.557Z,35.97
2018-06-02T17:36:19.245Z,17.87
2018-06-02T17:38:47.942Z,18.40
2018-06-02T17:41:16.821Z,16.47
2018-06-02T17:43:46.348Z,16.90
2018-06-02T17:46:15.072Z,14.70
2018-06-02T17:48:44.051Z,16.00
2018-06-02T17:51:12.872Z,13.77
2018-06-02T17:53:47.615Z,22.47
2018-06-02T17:56:17.679Z,15.83
2018-06-02T17:58:48.061Z,17.33
2018-06-02T18:01:19.250Z,11.27
2018-06-02T18:03:49.114Z,14.93
2018-06-02T18:06:17.922Z,17.20
2018-06-02T18:08:46.796Z,18.77
2018-06-02T18:11:15.816Z,13.03
2018-06-02T18:13:45.749Z,11.53
2018-06-02T18:16:14.731Z,20.23
2018-06-02T18:18:43.652Z,13.63
2018-06-02T18:21:12.410Z,17.73
2018-06-02T18:23:41.144Z,23.83
2018-06-02T18:26:09.870Z,20.37
2018-06-02T18:28:38.859Z,14.17
2018-06-02T18:31:07.686Z,25.20
2018-06-02T18:33:36.465Z,35.00
2018-06-02T18:36:05.461Z,172.20
2018-06-02T18:38:34.933Z,165.20
2018-06-02T18:41:03.601Z,97.30
2018-06-02T18:43:32.450Z,36.07
2018-06-02T18:46:01.781Z,17.00
2018-06-02T18:48:33.174Z,18.70
2018-06-02T18:51:02.215Z,19.60
2018-06-02T18:53:30.966Z,26.97
2018-06-02T18:55:59.794Z,18.33
2018-06-02T18:58:28.427Z,16.33
2018-06-02T19:00:57.418Z,15.43
2018-06-02T19:03:27.918Z,15.93
2018-06-02T19:05:56.678Z,15.57
2018-06-02T19:08:25.879Z,11.93
2018-06-02T19:10:55.494Z,18.20
2018-06-02T19:13:24.242Z,18.80
2018-06-02T19:15:53.966Z,17.30
2018-06-02T19:18:23.493Z,27.07
2018-06-02T19:20:52.221Z,25.30
2018-06-02T19:23:21.137Z,21.50
2018-06-02T19:25:50.709Z,20.50
2018-06-02T19:28:19.419Z,30.80
2018-06-02T19:30:48.131Z,16.83
2018-06-02T19:33:16.913Z,15.67
2018-06-02T19:35:45.766Z,19.13
2018-06-02T19:38:14.467Z,18.07
2018-06-02T19:40:43.329Z,15.27
2018-06-02T19:43:12.045Z,18.20
2018-06-02T19:45:40.722Z,14.87
2018-06-02T19:48:10.284Z,13.27
2018-06-02T19:50:38.949Z,12.93
2018-06-02T19:53:07.702Z,12.33
2018-06-02T19:55:36.603Z,12.97
2018-06-02T19:58:05.480Z,15.60
2018-06-02T20:00:34.289Z,13.03
2018-06-02T20:03:03.073Z,10.00
2018-06-02T20:05:32.662Z,15.63
2018-06-02T20:08:01.494Z,16.00
2018-06-02T20:10:30.941Z,18.47
2018-06-02T20:13:00.597Z,18.10
2018-06-02T20:15:29.974Z,13.60
2018-06-02T20:17:59.001Z,15.13
2018-06-02T20:20:28.509Z,17.63
2018-06-02T20:22:57.403Z,14.80
2018-06-02T20:25:26.484Z,16.33
2018-06-02T20:27:56.262Z,11.23
2018-06-02T20:30:25.302Z,14.23
2018-06-02T20:32:55.308Z,16.77
2018-06-02T20:35:24.061Z,24.30
2018-06-02T20:37:53.058Z,22.80
2018-06-02T20:40:21.976Z,19.63
2018-06-02T20:42:52.460Z,15.47
2018-06-02T20:45:21.202Z,13.37
2018-06-02T20:47:50.721Z,12.97
2018-06-02T20:50:19.529Z,16.33
2018-06-02T20:52:48.286Z,11.37
2018-06-02T20:55:18.203Z,10.27
2018-06-02T20:57:47.608Z,13.40
2018-06-02T21:00:16.353Z,18.17
2018-06-02T21:02:45.459Z,9.23
2018-06-02T21:05:14.272Z,15.83
2018-06-02T21:07:42.918Z,13.43
2018-06-02T21:10:11.704Z,13.13
2018-06-02T21:12:40.757Z,17.73
2018-06-02T21:15:09.485Z,14.17
2018-06-02T21:17:38.388Z,19.30
2018-06-02T21:20:07.103Z,16.27
2018-06-02T21:22:35.809Z,15.50
2018-06-02T21:25:04.670Z,14.50
2018-06-02T21:27:34.358Z,13.50
2018-06-02T21:30:04.033Z,16.80
2018-06-02T21:32:33.632Z,13.57
2018-06-02T21:35:02.447Z,14.03
2018-06-02T21:37:31.139Z,21.80
2018-06-02T21:39:59.925Z,14.60
2018-06-02T21:42:28.661Z,15.33
2018-06-02T21:44:58.203Z,17.60
2018-06-02T21:47:26.859Z,18.40
2018-06-02T21:49:55.571Z,33.70
2018-06-02T21:52:24.361Z,35.90
2018-06-02T21:54:53.053Z,29.43
2018-06-02T21:57:21.792Z,29.37
2018-06-02T21:59:51.461Z,22.50
2018-06-02T22:02:20.209Z,14.77
2018-06-02T22:04:49.090Z,14.67
2018-06-02T22:07:18.048Z,12.20
2018-06-02T22:09:46.928Z,15.90
2018-06-02T22:12:15.676Z,19.73
2018-06-02T22:14:44.604Z,17.93
2018-06-02T22:17:13.623Z,17.47
2018-06-02T22:19:42.632Z,12.97
2018-06-02T22:22:11.437Z,18.97
2018-06-02T22:24:40.320Z,24.23
2018-06-02T22:27:09.891Z,13.43
2018-06-02T22:29:38.586Z,17.10
2018-06-02T22:32:07.391Z,18.27
2018-06-02T22:34:36.865Z,11.50
2018-06-02T22:37:05.701Z,14.43
2018-06-02T22:39:34.546Z,15.40
2018-06-02T22:42:03.665Z,15.83
2018-06-02T22:44:32.465Z,15.63
2018-06-02T22:47:05.399Z,15.97
2018-06-02T22:49:34.065Z,13.93
2018-06-02T22:52:02.880Z,11.57
2018-06-02T22:54:31.704Z,12.57
2018-06-02T22:57:01.353Z,14.07
2018-06-02T22:59:30.494Z,15.30
2018-06-02T23:02:00.088Z,10.40
2018-06-02T23:04:29.048Z,14.00
2018-06-02T23:06:57.681Z,15.37
2018-06-02T23:09:26.223Z,15.93
2018-06-02T23:11:54.802Z,18.30
2018-06-02T23:14:23.241Z,16.57
2018-06-02T23:16:51.885Z,14.50
2018-06-02T23:19:20.393Z,18.00
2018-06-02T23:21:48.896Z,21.00
2018-06-02T23:24:18.413Z,16.70
2018-06-02T23:26:46.999Z,14.90
2018-06-02T23:29:15.654Z,16.03
2018-06-02T23:31:45.003Z,20.73
2018-06-02T23:34:13.726Z,15.63
2018-06-02T23:36:42.341Z,17.70
2018-06-02T23:39:11.594Z,14.70
2018-06-02T23:41:40.440Z,17.00
2018-06-02T23:44:09.317Z,22.93
2018-06-02T23:46:38.576Z,16.90
2018-06-02T23:49:07.100Z,16.13
2018-06-02T23:51:35.840Z,15.67
2018-06-02T23:54:04.401Z,18.50
2018-06-02T23:56:32.950Z,18.53
2018-06-02T23:59:02.257Z,15.73
